Time;durP1;ratioP1;P1;durP2;ratioP2;P2;SDS_P1;SDS_P2;PMS_P1;PMS_P2;Temp;Humidity;BMP_temperature;BMP_pressure;BME280_temperature;BME280_humidity;BME280_pressure;Samples;Min_cycle;Max_cycle;Signal;HPM_P1;HPM_P2
2022/02/28 10:11:40;;;;;;;23.00;21.10;;;18.20;47.60;;;;;;5087343;27;20565;-75
2022/02/28 10:14:08;;;;;;;24.58;22.75;;;18.60;44.70;;;;;;5087395;28;20509;-76
2022/02/28 10:16:36;;;;;;;24.17;22.17;;;17.20;46.90;;;;;;5087093;28;20202;-74
2022/02/28 10:19:05;;;;;;;23.15;21.40;;;16.60;46.60;;;;;;5086957;28;20809;-75
2022/02/28 10:21:36;;;;;;;23.33;21.63;;;16.30;48.80;;;;;;5087186;28;20204;-74
2022/02/28 10:24:03;;;;;;;23.00;21.17;;;17.10;47.70;;;;;;5087009;28;20486;-75
2022/02/28 10:26:40;;;;;;;25.00;22.97;;;18.20;46.10;;;;;;5087115;28;20469;-74
2022/02/28 10:29:08;;;;;;;23.47;21.67;;;19.00;44.70;;;;;;5086933;28;20778;-75
2022/02/28 10:31:37;;;;;;;23.37;21.87;;;19.40;44.40;;;;;;5086777;28;20454;-75
2022/02/28 10:34:16;;;;;;;25.00;23.10;;;20.00;42.80;;;;;;5086626;28;20513;-75
2022/02/28 10:36:45;;;;;;;25.50;23.40;;;20.70;40.90;;;;;;5087059;28;20454;-75
2022/02/28 10:39:13;;;;;;;24.00;22.07;;;19.50;41.40;;;;;;5086808;28;20443;-75
2022/02/28 10:41:43;;;;;;;22.45;20.92;;;20.00;42.10;;;;;;5086363;28;20480;-76
2022/02/28 10:44:13;;;;;;;24.65;22.65;;;20.60;40.40;;;;;;5086979;28;20529;-75
2022/02/28 10:46:43;;;;;;;23.80;22.20;;;21.80;38.70;;;;;;5086526;28;20227;-76
2022/02/28 10:49:15;;;;;;;21.20;19.80;;;22.30;37.30;;;;;;5086334;28;20481;-75
2022/02/28 10:51:52;;;;;;;20.90;19.43;;;20.00;36.50;;;;;;5086574;28;20465;-75
2022/02/28 10:54:25;;;;;;;20.87;19.47;;;17.70;39.20;;;;;;5086484;28;20454;-75
2022/02/28 10:56:59;;;;;;;22.30;20.87;;;16.90;40.80;;;;;;5086279;28;20453;-76
2022/02/28 10:59:28;;;;;;;20.35;18.88;;;16.20;41.30;;;;;;5086414;28;20484;-75
2022/02/28 11:01:55;;;;;;;20.07;18.63;;;15.20;42.10;;;;;;5086329;28;20221;-76
2022/02/28 11:04:37;;;;;;;21.43;19.83;;;14.10;43.70;;;;;;5086124;28;20734;-76
2022/02/28 11:07:09;;;;;;;20.90;19.50;;;14.00;45.00;;;;;;5086469;28;20460;-76
2022/02/28 11:09:39;;;;;;;20.60;19.15;;;14.10;45.70;;;;;;5085970;28;20244;-77
2022/02/28 11:12:26;;;;;;;21.52;19.92;;;14.50;44.90;;;;;;5075359;28;20631;-77
2022/02/28 11:14:54;;;;;;;20.30;18.90;;;14.70;44.40;;;;;;5072729;28;20393;-77
2022/02/28 11:17:23;;;;;;;20.00;18.40;;;14.60;43.60;;;;;;5072510;28;20453;-76
2022/02/28 11:19:51;;;;;;;20.83;19.37;;;14.20;43.90;;;;;;5072469;28;20204;-76
2022/02/28 11:22:18;;;;;;;21.10;19.50;;;13.70;43.40;;;;;;5072684;28;20451;-76
2022/02/28 11:24:46;;;;;;;19.40;18.00;;;13.60;44.30;;;;;;5072546;28;20861;-76
2022/02/28 11:27:13;;;;;;;21.93;19.77;;;12.90;45.20;;;;;;5072580;28;20443;-76
2022/02/28 11:29:42;;;;;;;19.67;18.27;;;13.00;45.70;;;;;;5072134;28;20847;-76
2022/02/28 11:32:09;;;;;;;19.50;18.20;;;12.80;45.00;;;;;;5072079;28;20452;-76
2022/02/28 11:34:36;;;;;;;20.30;18.90;;;12.50;45.60;;;;;;5072104;28;20454;-77
2022/02/28 11:37:04;;;;;;;19.00;17.70;;;13.30;45.30;;;;;;5072062;28;20455;-77
2022/02/28 11:39:34;;;;;;;19.20;17.73;;;13.20;43.80;;;;;;5071772;28;20447;-77
2022/02/28 11:42:03;;;;;;;18.87;17.40;;;12.60;44.30;;;;;;5072297;28;20458;-76
2022/02/28 11:44:34;;;;;;;17.23;15.93;;;12.80;44.80;;;;;;5071871;28;20474;-76
2022/02/28 11:47:04;;;;;;;18.97;17.63;;;12.80;45.00;;;;;;5072010;28;20973;-75
2022/02/28 11:49:40;;;;;;;20.40;18.80;;;13.20;44.60;;;;;;5071736;28;20452;-75
2022/02/28 11:52:29;;;;;;;19.03;17.40;;;13.40;44.10;;;;;;5071496;28;20523;-75
2022/02/28 11:54:59;;;;;;;19.45;17.85;;;13.70;44.50;;;;;;5071688;28;20444;-76
2022/02/28 11:57:48;;;;;;;20.00;18.50;;;14.00;44.30;;;;;;5071951;28;20211;-75
2022/02/28 12:00:19;;;;;;;20.80;19.17;;;14.30;43.00;;;;;;5072112;28;20444;-76
2022/02/28 12:02:47;;;;;;;18.63;17.33;;;14.80;42.90;;;;;;5071876;28;20479;-76
2022/02/28 12:05:38;;;;;;;20.50;19.00;;;15.50;42.60;;;;;;5072246;28;20218;-77
2022/02/28 12:08:05;;;;;;;19.70;18.50;;;15.20;41.90;;;;;;5071430;28;20450;-76
2022/02/28 12:10:32;;;;;;;21.07;19.60;;;14.40;42.80;;;;;;5071266;28;20257;-76
2022/02/28 12:13:00;;;;;;;20.92;19.33;;;14.90;43.10;;;;;;5071483;28;20516;-76
2022/02/28 12:15:28;;;;;;;21.23;19.73;;;15.50;42.80;;;;;;5071239;28;20225;-76
2022/02/28 12:18:15;;;;;;;19.90;18.60;;;15.70;42.50;;;;;;5071172;28;20459;-76
2022/02/28 12:20:47;;;;;;;20.43;19.00;;;15.40;41.90;;;;;;5071298;28;20443;-76
2022/02/28 12:23:16;;;;;;;21.50;19.90;;;14.80;42.70;;;;;;5070166;28;20447;-75
2022/02/28 12:25:45;;;;;;;20.50;19.13;;;16.10;42.40;;;;;;5071176;28;20547;-76
2022/02/28 12:28:19;;;;;;;19.73;18.33;;;16.70;40.70;;;;;;5071633;28;20507;-76
2022/02/28 12:30:48;;;;;;;21.05;19.30;;;17.50;39.80;;;;;;5072038;28;20494;-77
2022/02/28 12:33:17;;;;;;;19.80;18.37;;;16.80;39.50;;;;;;5071207;28;20201;-76
2022/02/28 12:35:57;;;;;;;20.53;19.13;;;17.50;38.80;;;;;;5071282;28;20886;-76
2022/02/28 12:38:25;;;;;;;19.83;18.50;;;15.60;39.50;;;;;;5070820;28;20454;-76
2022/02/28 12:40:55;;;;;;;19.52;17.75;;;15.20;41.20;;;;;;5070795;28;20451;-77
2022/02/28 12:43:24;;;;;;;19.57;18.13;;;16.30;40.80;;;;;;5070713;28;20213;-77
2022/02/28 12:45:52;;;;;;;18.03;16.93;;;17.20;40.40;;;;;;5070602;28;20454;-77
2022/02/28 12:48:22;;;;;;;17.77;16.57;;;17.40;37.00;;;;;;5070345;28;20462;-76
2022/02/28 12:50:51;;;;;;;19.10;17.70;;;17.30;34.60;;;;;;5070280;28;20494;-76
2022/02/28 12:53:18;;;;;;;19.60;18.20;;;16.60;36.00;;;;;;5070362;28;20454;-76
2022/02/28 12:55:53;;;;;;;19.07;17.67;;;16.00;37.00;;;;;;5070680;28;21129;-76
2022/02/28 12:58:21;;;;;;;19.77;18.20;;;15.90;38.20;;;;;;5070269;28;20496;-76
2022/02/28 13:00:49;;;;;;;19.63;18.20;;;15.40;38.60;;;;;;5070305;28;20451;-76
2022/02/28 13:03:15;;;;;;;18.93;17.73;;;15.80;38.90;;;;;;5070558;28;20569;-76
2022/02/28 13:05:55;;;;;;;19.30;17.93;;;16.20;38.10;;;;;;5070507;28;20441;-76
2022/02/28 13:08:21;;;;;;;18.87;17.67;;;16.20;38.50;;;;;;5070258;28;20451;-75
2022/02/28 13:10:48;;;;;;;18.70;17.30;;;16.60;38.30;;;;;;5069721;28;20498;-76
2022/02/28 13:13:23;;;;;;;18.63;17.40;;;16.10;38.20;;;;;;5070587;28;20454;-75
2022/02/28 13:15:58;;;;;;;18.03;16.83;;;14.70;38.80;;;;;;5069802;28;20494;-74
2022/02/28 13:18:27;;;;;;;18.37;17.13;;;14.60;39.70;;;;;;5069922;28;20447;-74
2022/02/28 13:20:56;;;;;;;19.37;17.87;;;14.40;40.30;;;;;;5069889;28;20451;-74
2022/02/28 13:23:23;;;;;;;19.73;18.33;;;14.40;40.90;;;;;;5070129;28;20494;-75
2022/02/28 13:25:51;;;;;;;19.10;17.90;;;14.20;40.60;;;;;;5070179;28;20459;-75
2022/02/28 13:28:18;;;;;;;19.53;18.10;;;14.10;40.70;;;;;;5070249;28;20390;-74
2022/02/28 13:30:44;;;;;;;18.43;17.13;;;14.20;41.30;;;;;;5070267;28;20490;-74
2022/02/28 13:33:11;;;;;;;19.90;18.37;;;14.80;40.40;;;;;;5069979;28;20915;-74
2022/02/28 13:35:40;;;;;;;17.90;16.63;;;15.70;39.50;;;;;;5069543;28;21009;-76
2022/02/28 13:38:08;;;;;;;19.55;18.15;;;17.00;38.90;;;;;;5069764;28;20455;-76
2022/02/28 13:40:35;;;;;;;20.40;19.00;;;17.20;37.20;;;;;;5069755;28;20196;-78
2022/02/28 13:43:07;;;;;;;18.40;17.23;;;16.20;37.00;;;;;;5070072;28;20471;-75
2022/02/28 13:45:34;;;;;;;18.33;17.13;;;14.80;38.40;;;;;;5069877;28;20458;-77
2022/02/28 13:48:16;;;;;;;17.83;16.73;;;14.10;39.80;;;;;;5070018;28;20455;-75
2022/02/28 13:50:44;;;;;;;18.83;17.27;;;13.50;40.30;;;;;;5070052;28;20483;-75
2022/02/28 13:53:12;;;;;;;16.43;15.33;;;12.40;40.60;;;;;;5069822;28;20730;-76
2022/02/28 13:55:43;;;;;;;16.77;15.63;;;11.80;40.70;;;;;;5069754;28;20455;-75
2022/02/28 13:58:12;;;;;;;16.20;15.10;;;11.50;41.60;;;;;;5069914;28;20229;-75
2022/02/28 14:00:49;;;;;;;16.97;15.77;;;11.40;42.20;;;;;;5069750;28;20451;-75
2022/02/28 14:03:17;;;;;;;18.15;16.70;;;11.10;43.10;;;;;;5069503;28;20944;-76
2022/02/28 14:05:47;;;;;;;16.47;15.13;;;11.10;43.80;;;;;;5069866;28;20197;-76
2022/02/28 14:08:17;;;;;;;18.90;17.30;;;11.10;43.70;;;;;;5069785;28;20943;-75
2022/02/28 14:10:45;;;;;;;17.73;16.23;;;11.00;43.70;;;;;;5069960;28;20847;-75
2022/02/28 14:13:17;;;;;;;16.33;15.13;;;11.00;43.40;;;;;;5069877;28;20451;-76
2022/02/28 14:15:45;;;;;;;15.37;14.27;;;11.00;43.40;;;;;;5070275;28;20455;-74
2022/02/28 14:18:11;;;;;;;18.90;17.40;;;10.90;42.90;;;;;;5069457;28;20454;-75
2022/02/28 14:20:39;;;;;;;17.10;15.80;;;10.90;42.90;;;;;;5069486;28;20477;-75
2022/02/28 14:23:08;;;;;;;17.13;15.83;;;10.80;43.40;;;;;;5069436;28;20454;-75
2022/02/28 14:25:36;;;;;;;18.27;16.90;;;10.80;45.30;;;;;;5069552;28;20446;-75
2022/02/28 14:28:14;;;;;;;17.50;16.20;;;10.80;45.70;;;;;;5069471;28;20573;-75
2022/02/28 14:30:41;;;;;;;17.43;16.23;;;10.70;45.60;;;;;;5069431;28;20573;-75
2022/02/28 14:33:10;;;;;;;16.07;14.93;;;10.70;45.70;;;;;;5069109;28;20646;-75
2022/02/28 14:35:37;;;;;;;16.80;15.47;;;10.70;45.90;;;;;;5069351;28;20458;-76
2022/02/28 14:38:04;;;;;;;16.80;15.33;;;10.80;45.60;;;;;;5069091;28;20521;-75
2022/02/28 14:40:33;;;;;;;17.53;15.90;;;10.80;45.40;;;;;;5069338;28;20446;-77
2022/02/28 14:43:01;;;;;;;16.43;15.23;;;10.70;45.30;;;;;;5069516;28;20545;-75
2022/02/28 14:45:29;;;;;;;16.50;15.10;;;10.70;46.10;;;;;;5069452;28;20541;-75
2022/02/28 14:47:56;;;;;;;16.02;14.93;;;10.70;45.80;;;;;;5072849;28;20459;-75
2022/02/28 14:50:22;;;;;;;16.63;15.43;;;10.70;45.70;;;;;;5072921;28;20209;-75
2022/02/28 14:52:49;;;;;;;16.90;15.60;;;10.80;46.00;;;;;;5072953;28;20451;-75
2022/02/28 14:55:17;;;;;;;18.10;16.80;;;10.70;45.80;;;;;;5072860;28;20452;-75
2022/02/28 14:57:43;;;;;;;15.50;14.40;;;10.70;46.30;;;;;;5073047;28;20209;-75
2022/02/28 15:00:14;;;;;;;16.10;14.90;;;10.70;45.90;;;;;;5072638;28;20445;-75
2022/02/28 15:02:40;;;;;;;15.03;13.93;;;10.60;45.40;;;;;;5072524;28;20887;-77
2022/02/28 15:05:08;;;;;;;17.10;15.90;;;10.50;45.60;;;;;;5072611;28;20459;-76
2022/02/28 15:07:34;;;;;;;16.30;15.10;;;10.50;45.00;;;;;;5072573;28;20455;-76
2022/02/28 15:10:02;;;;;;;15.80;14.60;;;10.40;45.20;;;;;;5072637;28;21008;-75
2022/02/28 15:12:29;;;;;;;14.13;13.15;;;10.40;44.10;;;;;;5072748;28;20533;-75
2022/02/28 15:14:55;;;;;;;15.33;14.33;;;10.50;43.60;;;;;;5072475;28;20208;-75
2022/02/28 15:17:24;;;;;;;15.00;13.80;;;10.50;44.00;;;;;;5072382;28;21131;-75
2022/02/28 15:19:50;;;;;;;15.80;14.80;;;10.50;44.10;;;;;;5072417;28;21035;-75
2022/02/28 15:22:17;;;;;;;15.57;14.50;;;10.50;44.30;;;;;;5072452;28;20440;-76
2022/02/28 15:24:44;;;;;;;17.00;15.50;;;10.40;44.40;;;;;;5072629;28;20454;-75
2022/02/28 15:27:10;;;;;;;15.30;14.20;;;10.50;45.30;;;;;;5072364;28;20224;-76
2022/02/28 15:29:37;;;;;;;16.00;15.10;;;10.60;45.00;;;;;;5072488;28;20456;-75
2022/02/28 15:32:04;;;;;;;14.73;13.60;;;10.50;44.50;;;;;;5072243;28;20491;-75
2022/02/28 15:34:32;;;;;;;16.40;15.10;;;10.50;44.30;;;;;;5072368;28;20459;-74
2022/02/28 15:36:59;;;;;;;17.63;16.33;;;10.50;43.60;;;;;;5072521;28;20452;-74
2022/02/28 15:39:26;;;;;;;17.98;16.67;;;10.40;44.20;;;;;;5072195;28;20460;-75
2022/02/28 15:41:53;;;;;;;16.10;14.73;;;10.40;44.50;;;;;;5072030;28;20833;-74
2022/02/28 15:44:20;;;;;;;17.43;16.33;;;10.40;45.60;;;;;;5072092;28;20218;-76
2022/02/28 15:46:47;;;;;;;17.10;16.00;;;10.40;45.50;;;;;;5072102;28;20466;-76
2022/02/28 15:49:13;;;;;;;17.97;16.60;;;10.40;45.90;;;;;;5071938;28;20459;-76
2022/02/28 15:51:43;;;;;;;16.70;15.50;;;10.30;45.90;;;;;;5071842;28;20482;-73
2022/02/28 15:54:09;;;;;;;15.60;14.50;;;10.20;46.30;;;;;;5071815;28;20550;-74
2022/02/28 15:56:36;;;;;;;16.63;15.43;;;10.20;46.80;;;;;;5071622;28;20201;-76
2022/02/28 15:59:03;;;;;;;17.70;16.47;;;10.20;47.00;;;;;;5071779;28;20451;-75
2022/02/28 16:01:29;;;;;;;15.90;14.60;;;10.10;46.80;;;;;;5072045;28;20474;-76
2022/02/28 16:03:56;;;;;;;17.25;15.68;;;10.10;46.80;;;;;;5071701;28;20458;-75
2022/02/28 16:06:23;;;;;;;17.23;16.03;;;10.10;46.80;;;;;;5071882;28;20201;-76
2022/02/28 16:08:51;;;;;;;16.50;15.40;;;10.00;47.80;;;;;;5071580;28;20447;-76
2022/02/28 16:11:18;;;;;;;15.77;14.52;;;10.00;47.80;;;;;;5071254;28;21017;-76
2022/02/28 16:13:44;;;;;;;16.07;15.07;;;10.00;47.60;;;;;;5071450;28;20205;-76
2022/02/28 16:16:12;;;;;;;17.33;15.93;;;10.00;47.50;;;;;;5071383;28;20443;-76
2022/02/28 16:18:38;;;;;;;18.10;16.70;;;9.90;48.10;;;;;;5071383;28;20451;-76
2022/02/28 16:21:05;;;;;;;15.70;14.60;;;9.90;48.50;;;;;;5071475;28;20767;-75
2022/02/28 16:23:32;;;;;;;17.80;16.30;;;9.80;48.70;;;;;;5071282;28;20450;-75
2022/02/28 16:26:00;;;;;;;15.93;14.83;;;9.70;49.30;;;;;;5071333;28;20867;-75
2022/02/28 16:28:27;;;;;;;15.93;14.53;;;9.60;48.60;;;;;;5071164;28;20451;-75
2022/02/28 16:30:54;;;;;;;16.47;15.47;;;9.60;48.70;;;;;;5070885;28;20946;-74
2022/02/28 16:33:20;;;;;;;16.60;15.20;;;9.50;48.40;;;;;;5070873;28;20873;-74
2022/02/28 16:35:47;;;;;;;16.27;15.27;;;9.40;48.80;;;;;;5070960;28;20832;-74
2022/02/28 16:38:14;;;;;;;16.73;15.57;;;9.40;48.90;;;;;;5071142;28;20907;-75
2022/02/28 16:40:41;;;;;;;16.10;14.80;;;9.40;49.60;;;;;;5070821;28;20454;-75
2022/02/28 16:43:09;;;;;;;18.27;16.67;;;9.40;49.80;;;;;;5070803;28;20459;-75
2022/02/28 16:45:36;;;;;;;16.80;15.20;;;9.20;50.10;;;;;;5070787;28;20848;-75
2022/02/28 16:48:03;;;;;;;16.17;14.97;;;9.20;50.40;;;;;;5070745;28;20470;-75
2022/02/28 16:50:29;;;;;;;15.97;14.60;;;9.10;50.80;;;;;;5071082;28;20454;-74
2022/02/28 16:52:57;;;;;;;15.40;14.20;;;9.00;51.20;;;;;;5070757;28;20881;-75
2022/02/28 16:55:24;;;;;;;17.00;15.70;;;8.90;51.80;;;;;;5070595;28;20491;-75
2022/02/28 16:57:51;;;;;;;17.07;15.90;;;8.90;52.20;;;;;;5070583;28;20443;-74
2022/02/28 17:00:19;;;;;;;14.27;13.17;;;8.90;53.10;;;;;;5070514;28;20455;-76
2022/02/28 17:02:46;;;;;;;16.40;15.10;;;8.90;53.80;;;;;;5070424;28;20459;-76
2022/02/28 17:05:14;;;;;;;17.10;15.90;;;8.80;54.30;;;;;;5070680;28;20451;-76
2022/02/28 17:07:44;;;;;;;18.05;16.48;;;8.70;54.60;;;;;;5070535;28;20442;-76
2022/02/28 17:10:11;;;;;;;17.23;15.93;;;8.60;55.00;;;;;;5069750;28;20240;-76
2022/02/28 17:12:38;;;;;;;17.00;15.63;;;8.60;55.90;;;;;;5070199;28;21068;-76
2022/02/28 17:15:05;;;;;;;16.55;15.35;;;8.50;56.10;;;;;;5070091;28;20454;-76
2022/02/28 17:17:33;;;;;;;18.40;17.00;;;8.50;56.40;;;;;;5070384;28;20201;-76
2022/02/28 17:20:00;;;;;;;17.90;16.40;;;8.50;56.50;;;;;;5070369;28;20683;-76
2022/02/28 17:22:27;;;;;;;17.03;15.83;;;8.40;56.80;;;;;;5070394;28;20460;-76
2022/02/28 17:24:54;;;;;;;16.53;15.17;;;8.30;57.10;;;;;;5070187;28;20454;-76
2022/02/28 17:27:20;;;;;;;16.93;15.60;;;8.10;57.40;;;;;;5069855;28;20656;-76
2022/02/28 17:29:47;;;;;;;17.20;15.93;;;8.10;57.70;;;;;;5070032;28;20451;-76
2022/02/28 17:32:14;;;;;;;16.63;15.33;;;8.10;58.10;;;;;;5069889;28;20232;-77
2022/02/28 17:34:42;;;;;;;17.63;16.07;;;8.00;58.10;;;;;;5069571;28;20560;-76
2022/02/28 17:37:10;;;;;;;16.10;14.70;;;7.90;58.80;;;;;;5069968;28;20459;-76
2022/02/28 17:39:39;;;;;;;15.83;14.43;;;7.80;58.80;;;;;;5069873;28;20505;-76
2022/02/28 17:42:06;;;;;;;16.20;15.00;;;7.70;59.40;;;;;;5069741;28;21008;-76
2022/02/28 17:44:34;;;;;;;17.50;16.27;;;7.70;59.30;;;;;;5069920;28;20208;-73
2022/02/28 17:47:01;;;;;;;16.52;15.07;;;7.70;59.30;;;;;;5070063;28;20464;-76
2022/02/28 17:49:27;;;;;;;16.20;14.83;;;7.70;58.80;;;;;;5069840;28;20200;-74
2022/02/28 17:51:55;;;;;;;15.73;14.57;;;7.70;58.50;;;;;;5069611;28;20493;-75
2022/02/28 17:54:22;;;;;;;15.87;14.67;;;7.70;58.20;;;;;;5069623;28;20447;-75
2022/02/28 17:56:50;;;;;;;15.53;14.33;;;7.60;58.10;;;;;;5069981;28;20455;-75
